sensor_id;sensor_type;location;lat;lon;timestamp;temperature;humidity
15003;DHT22;7597;53.590;10.020;2022-11-30T00:00:01;4.60;99.90
15003;DHT22;7597;53.590;10.020;2022-11-30T00:02:28;4.60;99.90
15003;DHT22;7597;53.590;10.020;2022-11-30T00:04:54;4.60;99.90
15003;DHT22;7597;53.590;10.020;2022-11-30T00:07:22;4.60;99.90
15003;DHT22;7597;53.590;10.020;2022-11-30T00:09:48;4.60;99.90
15003;DHT22;7597;53.590;10.020;2022-11-30T00:12:15;4.60;99.90
15003;DHT22;7597;53.590;10.020;2022-11-30T00:14:41;4.80;99.90
15003;DHT22;7597;53.590;10.020;2022-11-30T00:17:09;4.60;99.90
15003;DHT22;7597;53.590;10.020;2022-11-30T00:19:35;4.50;99.90
15003;DHT22;7597;53.590;10.020;2022-11-30T00:22:02;4.60;99.90
15003;DHT22;7597;53.590;10.020;2022-11-30T00:24:29;4.50;99.90
15003;DHT22;7597;53.590;10.020;2022-11-30T00:26:55;4.50;99.90
15003;DHT22;7597;53.590;10.020;2022-11-30T00:29:22;4.50;99.90
15003;DHT22;7597;53.590;10.020;2022-11-30T00:31:49;4.50;99.90
15003;DHT22;7597;53.590;10.020;2022-11-30T00:34:15;4.50;99.90
15003;DHT22;7597;53.590;10.020;2022-11-30T00:36:42;4.50;99.90
15003;DHT22;7597;53.590;10.020;2022-11-30T00:39:08;4.50;99.90
15003;DHT22;7597;53.590;10.020;2022-11-30T00:41:35;4.50;99.90
15003;DHT22;7597;53.590;10.020;2022-11-30T00:44:02;4.50;99.90
15003;DHT22;7597;53.590;10.020;2022-11-30T00:46:28;4.50;99.90
15003;DHT22;7597;53.590;10.020;2022-11-30T00:48:55;4.50;99.90
15003;DHT22;7597;53.590;10.020;2022-11-30T00:51:22;4.50;99.90
15003;DHT22;7597;53.590;10.020;2022-11-30T00:53:48;4.50;99.90
15003;DHT22;7597;53.590;10.020;2022-11-30T00:56:15;4.50;99.90
15003;DHT22;7597;53.590;10.020;2022-11-30T00:58:41;4.50;99.90
15003;DHT22;7597;53.590;10.020;2022-11-30T01:01:08;4.80;99.90
15003;DHT22;7597;53.590;10.020;2022-11-30T01:03:35;4.50;99.90
15003;DHT22;7597;53.590;10.020;2022-11-30T01:06:02;4.50;99.90
15003;DHT22;7597;53.590;10.020;2022-11-30T01:08:31;4.50;99.90
15003;DHT22;7597;53.590;10.020;2022-11-30T01:11:03;4.50;99.90
15003;DHT22;7597;53.590;10.020;2022-11-30T01:13:25;4.50;99.90
15003;DHT22;7597;53.590;10.020;2022-11-30T01:15:52;4.60;99.90
15003;DHT22;7597;53.590;10.020;2022-11-30T01:18:18;4.50;99.90
15003;DHT22;7597;53.590;10.020;2022-11-30T01:20:45;4.50;99.90
15003;DHT22;7597;53.590;10.020;2022-11-30T01:23:11;4.60;99.90
15003;DHT22;7597;53.590;10.020;2022-11-30T01:25:38;4.50;99.90
15003;DHT22;7597;53.590;10.020;2022-11-30T01:28:05;4.60;99.90
15003;DHT22;7597;53.590;10.020;2022-11-30T01:30:31;4.60;99.90
15003;DHT22;7597;53.590;10.020;2022-11-30T01:33:02;4.60;99.90
15003;DHT22;7597;53.590;10.020;2022-11-30T01:35:27;4.60;99.90
15003;DHT22;7597;53.590;10.020;2022-11-30T01:37:54;4.60;99.90
15003;DHT22;7597;53.590;10.020;2022-11-30T01:40:21;4.60;99.90
15003;DHT22;7597;53.590;10.020;2022-11-30T01:42:48;4.60;99.90
15003;DHT22;7597;53.590;10.020;2022-11-30T01:45:15;4.60;99.90
15003;DHT22;7597;53.590;10.020;2022-11-30T01:47:45;4.60;99.90
15003;DHT22;7597;53.590;10.020;2022-11-30T01:50:26;4.60;99.90
15003;DHT22;7597;53.590;10.020;2022-11-30T01:52:53;4.60;99.90
15003;DHT22;7597;53.590;10.020;2022-11-30T01:55:21;4.60;99.90
15003;DHT22;7597;53.590;10.020;2022-11-30T01:57:50;4.50;99.90
15003;DHT22;7597;53.590;10.020;2022-11-30T02:00:15;4.60;99.90
15003;DHT22;7597;53.590;10.020;2022-11-30T02:03:04;4.50;99.90
15003;DHT22;7597;53.590;10.020;2022-11-30T02:05:27;4.50;99.90
15003;DHT22;7597;53.590;10.020;2022-11-30T02:07:53;4.50;99.90
15003;DHT22;7597;53.590;10.020;2022-11-30T02:10:24;4.50;99.90
15003;DHT22;7597;53.590;10.020;2022-11-30T02:13:03;4.50;99.90
15003;DHT22;7597;53.590;10.020;2022-11-30T02:15:23;4.50;99.90
15003;DHT22;7597;53.590;10.020;2022-11-30T02:17:52;4.50;99.90
15003;DHT22;7597;53.590;10.020;2022-11-30T02:20:26;4.50;99.90
15003;DHT22;7597;53.590;10.020;2022-11-30T02:23:08;4.50;99.90
15003;DHT22;7597;53.590;10.020;2022-11-30T02:25:35;4.50;99.90
15003;DHT22;7597;53.590;10.020;2022-11-30T02:29:09;4.50;99.90
15003;DHT22;7597;53.590;10.020;2022-11-30T02:30:45;4.50;99.90
15003;DHT22;7597;53.590;10.020;2022-11-30T02:33:11;4.60;99.90
15003;DHT22;7597;53.590;10.020;2022-11-30T02:35:37;4.50;99.90
15003;DHT22;7597;53.590;10.020;2022-11-30T02:38:04;4.50;99.90
15003;DHT22;7597;53.590;10.020;2022-11-30T02:40:30;5.00;99.90
15003;DHT22;7597;53.590;10.020;2022-11-30T02:42:58;4.60;99.90
15003;DHT22;7597;53.590;10.020;2022-11-30T02:45:29;4.60;99.90
15003;DHT22;7597;53.590;10.020;2022-11-30T02:48:11;4.60;99.90
15003;DHT22;7597;53.590;10.020;2022-11-30T02:50:43;4.60;99.90
15003;DHT22;7597;53.590;10.020;2022-11-30T02:53:07;4.60;99.90
15003;DHT22;7597;53.590;10.020;2022-11-30T02:55:34;4.60;99.90
15003;DHT22;7597;53.590;10.020;2022-11-30T02:58:01;4.60;99.90
15003;DHT22;7597;53.590;10.020;2022-11-30T03:00:28;4.70;99.90
15003;DHT22;7597;53.590;10.020;2022-11-30T03:02:55;4.60;99.90
15003;DHT22;7597;53.590;10.020;2022-11-30T03:05:22;4.60;99.90
15003;DHT22;7597;53.590;10.020;2022-11-30T03:07:49;4.60;99.90
15003;DHT22;7597;53.590;10.020;2022-11-30T03:10:16;5.10;99.90
15003;DHT22;7597;53.590;10.020;2022-11-30T03:12:43;4.60;99.90
15003;DHT22;7597;53.590;10.020;2022-11-30T03:15:09;4.60;99.90
15003;DHT22;7597;53.590;10.020;2022-11-30T03:17:36;4.60;99.90
15003;DHT22;7597;53.590;10.020;2022-11-30T03:20:03;4.60;99.90
15003;DHT22;7597;53.590;10.020;2022-11-30T03:22:31;4.60;99.90
15003;DHT22;7597;53.590;10.020;2022-11-30T03:24:57;4.60;99.90
15003;DHT22;7597;53.590;10.020;2022-11-30T03:27:25;4.60;99.90
15003;DHT22;7597;53.590;10.020;2022-11-30T03:29:51;4.60;99.90
15003;DHT22;7597;53.590;10.020;2022-11-30T03:32:18;4.60;99.90
15003;DHT22;7597;53.590;10.020;2022-11-30T03:34:45;4.60;99.90
15003;DHT22;7597;53.590;10.020;2022-11-30T03:37:11;4.60;99.90
15003;DHT22;7597;53.590;10.020;2022-11-30T03:39:38;4.70;99.90
15003;DHT22;7597;53.590;10.020;2022-11-30T03:42:05;4.60;99.90
15003;DHT22;7597;53.590;10.020;2022-11-30T03:44:32;4.60;99.90
15003;DHT22;7597;53.590;10.020;2022-11-30T03:46:59;4.60;99.90
15003;DHT22;7597;53.590;10.020;2022-11-30T03:49:25;5.10;99.90
15003;DHT22;7597;53.590;10.020;2022-11-30T03:51:52;4.60;99.90
15003;DHT22;7597;53.590;10.020;2022-11-30T03:54:19;4.60;99.90
15003;DHT22;7597;53.590;10.020;2022-11-30T03:56:45;4.60;99.90
15003;DHT22;7597;53.590;10.020;2022-11-30T03:59:12;4.60;99.90
15003;DHT22;7597;53.590;10.020;2022-11-30T04:01:39;4.60;99.90
15003;DHT22;7597;53.590;10.020;2022-11-30T04:04:05;4.60;99.90
15003;DHT22;7597;53.590;10.020;2022-11-30T04:06:32;4.60;99.90
15003;DHT22;7597;53.590;10.020;2022-11-30T04:08:59;4.60;99.90
15003;DHT22;7597;53.590;10.020;2022-11-30T04:11:25;4.60;99.90
15003;DHT22;7597;53.590;10.020;2022-11-30T04:13:52;4.60;99.90
15003;DHT22;7597;53.590;10.020;2022-11-30T04:16:19;4.60;99.90
15003;DHT22;7597;53.590;10.020;2022-11-30T04:18:45;4.60;99.90
15003;DHT22;7597;53.590;10.020;2022-11-30T04:21:12;4.60;99.90
15003;DHT22;7597;53.590;10.020;2022-11-30T04:23:39;4.60;99.90
15003;DHT22;7597;53.590;10.020;2022-11-30T04:26:06;4.80;99.90
15003;DHT22;7597;53.590;10.020;2022-11-30T04:28:32;4.70;99.90
15003;DHT22;7597;53.590;10.020;2022-11-30T04:30:58;4.60;99.90
15003;DHT22;7597;53.590;10.020;2022-11-30T04:33:25;4.60;99.90
15003;DHT22;7597;53.590;10.020;2022-11-30T04:35:54;4.60;99.90
15003;DHT22;7597;53.590;10.020;2022-11-30T04:38:19;4.60;99.90
15003;DHT22;7597;53.590;10.020;2022-11-30T04:40:46;4.60;99.90
15003;DHT22;7597;53.590;10.020;2022-11-30T04:43:13;4.60;99.90
15003;DHT22;7597;53.590;10.020;2022-11-30T04:45:40;4.70;99.90
15003;DHT22;7597;53.590;10.020;2022-11-30T04:48:07;4.60;99.90
15003;DHT22;7597;53.590;10.020;2022-11-30T04:50:34;4.70;99.90
15003;DHT22;7597;53.590;10.020;2022-11-30T04:53:01;4.60;99.90
15003;DHT22;7597;53.590;10.020;2022-11-30T04:58:09;4.60;99.90
15003;DHT22;7597;53.590;10.020;2022-11-30T05:00:36;4.60;99.90
15003;DHT22;7597;53.590;10.020;2022-11-30T05:03:02;4.60;99.90
15003;DHT22;7597;53.590;10.020;2022-11-30T05:05:29;4.60;99.90
15003;DHT22;7597;53.590;10.020;2022-11-30T05:07:56;4.60;99.90
15003;DHT22;7597;53.590;10.020;2022-11-30T05:10:22;4.60;99.90
15003;DHT22;7597;53.590;10.020;2022-11-30T05:12:49;4.60;99.90
15003;DHT22;7597;53.590;10.020;2022-11-30T05:15:15;4.60;99.90
15003;DHT22;7597;53.590;10.020;2022-11-30T05:17:42;4.70;99.90
15003;DHT22;7597;53.590;10.020;2022-11-30T05:20:09;4.60;99.90
15003;DHT22;7597;53.590;10.020;2022-11-30T05:22:36;4.60;99.90
15003;DHT22;7597;53.590;10.020;2022-11-30T05:25:03;4.60;99.90
15003;DHT22;7597;53.590;10.020;2022-11-30T05:27:30;4.60;99.90
15003;DHT22;7597;53.590;10.020;2022-11-30T05:29:56;4.60;99.90
15003;DHT22;7597;53.590;10.020;2022-11-30T05:32:23;4.60;99.90
15003;DHT22;7597;53.590;10.020;2022-11-30T05:34:50;4.60;99.90
15003;DHT22;7597;53.590;10.020;2022-11-30T05:37:16;4.60;99.90
15003;DHT22;7597;53.590;10.020;2022-11-30T05:39:43;4.60;99.90
15003;DHT22;7597;53.590;10.020;2022-11-30T05:42:10;4.60;99.90
15003;DHT22;7597;53.590;10.020;2022-11-30T05:44:36;4.60;99.90
15003;DHT22;7597;53.590;10.020;2022-11-30T05:47:03;4.60;99.90
15003;DHT22;7597;53.590;10.020;2022-11-30T05:49:30;4.60;99.90
15003;DHT22;7597;53.590;10.020;2022-11-30T05:51:56;4.60;99.90
15003;DHT22;7597;53.590;10.020;2022-11-30T05:54:23;4.80;99.90
15003;DHT22;7597;53.590;10.020;2022-11-30T05:56:50;4.60;99.90
15003;DHT22;7597;53.590;10.020;2022-11-30T05:59:16;4.60;99.90
15003;DHT22;7597;53.590;10.020;2022-11-30T06:01:43;4.60;99.90
15003;DHT22;7597;53.590;10.020;2022-11-30T06:04:10;4.60;99.90
15003;DHT22;7597;53.590;10.020;2022-11-30T06:06:37;4.50;99.90
15003;DHT22;7597;53.590;10.020;2022-11-30T06:09:04;4.60;99.90
15003;DHT22;7597;53.590;10.020;2022-11-30T06:11:31;4.60;99.90
15003;DHT22;7597;53.590;10.020;2022-11-30T06:13:57;4.60;99.90
15003;DHT22;7597;53.590;10.020;2022-11-30T06:16:24;4.50;99.90
15003;DHT22;7597;53.590;10.020;2022-11-30T06:18:51;4.50;99.90
15003;DHT22;7597;53.590;10.020;2022-11-30T06:21:17;4.50;99.90
15003;DHT22;7597;53.590;10.020;2022-11-30T06:23:45;4.60;99.90
15003;DHT22;7597;53.590;10.020;2022-11-30T06:26:12;4.60;99.90
15003;DHT22;7597;53.590;10.020;2022-11-30T06:28:39;4.60;99.90
15003;DHT22;7597;53.590;10.020;2022-11-30T06:31:06;4.60;99.90
15003;DHT22;7597;53.590;10.020;2022-11-30T06:33:32;4.60;99.90
15003;DHT22;7597;53.590;10.020;2022-11-30T06:35:59;4.60;99.90
15003;DHT22;7597;53.590;10.020;2022-11-30T06:38:25;4.60;99.90
15003;DHT22;7597;53.590;10.020;2022-11-30T06:40:52;4.60;99.90
15003;DHT22;7597;53.590;10.020;2022-11-30T06:43:19;4.60;99.90
15003;DHT22;7597;53.590;10.020;2022-11-30T06:45:45;4.60;99.90
15003;DHT22;7597;53.590;10.020;2022-11-30T06:48:12;4.60;99.90
15003;DHT22;7597;53.590;10.020;2022-11-30T06:50:38;4.60;99.90
15003;DHT22;7597;53.590;10.020;2022-11-30T06:53:05;4.50;99.90
15003;DHT22;7597;53.590;10.020;2022-11-30T06:55:32;4.90;99.90
15003;DHT22;7597;53.590;10.020;2022-11-30T06:58:05;4.50;99.90
15003;DHT22;7597;53.590;10.020;2022-11-30T07:00:31;4.50;99.90
15003;DHT22;7597;53.590;10.020;2022-11-30T07:02:57;4.50;99.90
15003;DHT22;7597;53.590;10.020;2022-11-30T07:05:25;4.60;99.90
15003;DHT22;7597;53.590;10.020;2022-11-30T07:07:51;4.60;99.90
15003;DHT22;7597;53.590;10.020;2022-11-30T07:10:18;4.60;99.90
15003;DHT22;7597;53.590;10.020;2022-11-30T07:12:45;4.60;99.90
15003;DHT22;7597;53.590;10.020;2022-11-30T07:15:11;4.60;99.90
15003;DHT22;7597;53.590;10.020;2022-11-30T07:17:38;4.60;99.90
15003;DHT22;7597;53.590;10.020;2022-11-30T07:20:05;4.60;99.90
15003;DHT22;7597;53.590;10.020;2022-11-30T07:22:32;4.60;99.90
15003;DHT22;7597;53.590;10.020;2022-11-30T07:24:59;4.60;99.90
15003;DHT22;7597;53.590;10.020;2022-11-30T07:27:31;4.40;99.90
15003;DHT22;7597;53.590;10.020;2022-11-30T07:29:58;4.60;99.90
15003;DHT22;7597;53.590;10.020;2022-11-30T07:32:24;4.60;99.90
15003;DHT22;7597;53.590;10.020;2022-11-30T07:34:51;4.60;99.90
15003;DHT22;7597;53.590;10.020;2022-11-30T07:37:18;4.60;99.90
15003;DHT22;7597;53.590;10.020;2022-11-30T07:39:44;4.60;99.90
15003;DHT22;7597;53.590;10.020;2022-11-30T07:42:11;4.70;99.90
15003;DHT22;7597;53.590;10.020;2022-11-30T07:44:38;4.70;99.90
15003;DHT22;7597;53.590;10.020;2022-11-30T07:47:05;4.60;99.90
15003;DHT22;7597;53.590;10.020;2022-11-30T07:49:31;4.60;99.90
15003;DHT22;7597;53.590;10.020;2022-11-30T07:51:58;4.70;99.90
15003;DHT22;7597;53.590;10.020;2022-11-30T07:54:24;4.70;99.90
15003;DHT22;7597;53.590;10.020;2022-11-30T07:56:51;4.60;99.90
15003;DHT22;7597;53.590;10.020;2022-11-30T07:59:18;4.60;99.90
15003;DHT22;7597;53.590;10.020;2022-11-30T08:01:44;4.60;99.90
15003;DHT22;7597;53.590;10.020;2022-11-30T08:04:11;4.60;99.90
15003;DHT22;7597;53.590;10.020;2022-11-30T08:06:38;4.70;99.90
15003;DHT22;7597;53.590;10.020;2022-11-30T08:09:04;4.70;99.90
15003;DHT22;7597;53.590;10.020;2022-11-30T08:11:32;4.70;99.90
15003;DHT22;7597;53.590;10.020;2022-11-30T08:13:59;4.60;99.90
15003;DHT22;7597;53.590;10.020;2022-11-30T08:16:27;4.70;99.90
15003;DHT22;7597;53.590;10.020;2022-11-30T08:18:54;4.70;99.90
15003;DHT22;7597;53.590;10.020;2022-11-30T08:21:20;4.80;99.90
15003;DHT22;7597;53.590;10.020;2022-11-30T08:23:51;4.80;99.90
15003;DHT22;7597;53.590;10.020;2022-11-30T08:26:18;4.70;99.90
15003;DHT22;7597;53.590;10.020;2022-11-30T08:28:44;4.80;99.90
15003;DHT22;7597;53.590;10.020;2022-11-30T08:31:12;4.80;99.90
15003;DHT22;7597;53.590;10.020;2022-11-30T08:33:37;4.80;99.90
15003;DHT22;7597;53.590;10.020;2022-11-30T08:36:12;4.80;99.90
15003;DHT22;7597;53.590;10.020;2022-11-30T08:38:39;4.80;99.90
15003;DHT22;7597;53.590;10.020;2022-11-30T08:41:05;4.80;99.90
15003;DHT22;7597;53.590;10.020;2022-11-30T08:43:32;4.90;99.90
15003;DHT22;7597;53.590;10.020;2022-11-30T08:46:00;4.90;99.90
15003;DHT22;7597;53.590;10.020;2022-11-30T08:48:25;4.90;99.90
15003;DHT22;7597;53.590;10.020;2022-11-30T08:50:52;4.90;99.90
15003;DHT22;7597;53.590;10.020;2022-11-30T08:53:19;5.00;99.90
15003;DHT22;7597;53.590;10.020;2022-11-30T08:55:54;5.00;99.90
15003;DHT22;7597;53.590;10.020;2022-11-30T08:58:20;5.00;99.90
15003;DHT22;7597;53.590;10.020;2022-11-30T09:00:46;5.00;99.90
15003;DHT22;7597;53.590;10.020;2022-11-30T09:03:13;5.00;99.90
15003;DHT22;7597;53.590;10.020;2022-11-30T09:05:40;5.10;99.90
15003;DHT22;7597;53.590;10.020;2022-11-30T09:08:06;5.10;99.90
15003;DHT22;7597;53.590;10.020;2022-11-30T09:10:33;5.10;99.90
15003;DHT22;7597;53.590;10.020;2022-11-30T09:13:00;5.10;99.90
15003;DHT22;7597;53.590;10.020;2022-11-30T09:15:26;5.10;99.90
15003;DHT22;7597;53.590;10.020;2022-11-30T09:17:53;5.10;99.90
15003;DHT22;7597;53.590;10.020;2022-11-30T09:20:20;5.10;99.90
15003;DHT22;7597;53.590;10.020;2022-11-30T09:22:47;5.10;99.90
15003;DHT22;7597;53.590;10.020;2022-11-30T09:25:14;5.20;99.90
15003;DHT22;7597;53.590;10.020;2022-11-30T09:27:40;5.10;99.90
15003;DHT22;7597;53.590;10.020;2022-11-30T09:30:07;5.10;99.90
15003;DHT22;7597;53.590;10.020;2022-11-30T09:32:34;5.20;99.90
15003;DHT22;7597;53.590;10.020;2022-11-30T09:35:01;5.20;99.90
15003;DHT22;7597;53.590;10.020;2022-11-30T09:37:27;5.20;99.90
15003;DHT22;7597;53.590;10.020;2022-11-30T09:39:54;5.20;99.90
15003;DHT22;7597;53.590;10.020;2022-11-30T09:42:25;5.20;99.90
15003;DHT22;7597;53.590;10.020;2022-11-30T09:44:57;5.20;99.90
15003;DHT22;7597;53.590;10.020;2022-11-30T09:49:56;5.20;99.90
15003;DHT22;7597;53.590;10.020;2022-11-30T09:52:28;5.20;99.90
15003;DHT22;7597;53.590;10.020;2022-11-30T09:54:52;5.20;99.90
15003;DHT22;7597;53.590;10.020;2022-11-30T09:57:26;5.20;99.90
15003;DHT22;7597;53.590;10.020;2022-11-30T09:59:57;5.20;99.90
15003;DHT22;7597;53.590;10.020;2022-11-30T10:02:28;5.10;99.90
15003;DHT22;7597;53.590;10.020;2022-11-30T10:04:54;5.10;99.90
15003;DHT22;7597;53.590;10.020;2022-11-30T10:07:52;5.10;99.90
15003;DHT22;7597;53.590;10.020;2022-11-30T10:10:24;5.00;99.90
15003;DHT22;7597;53.590;10.020;2022-11-30T10:12:59;5.10;99.90
15003;DHT22;7597;53.590;10.020;2022-11-30T10:15:32;5.10;99.90
15003;DHT22;7597;53.590;10.020;2022-11-30T10:20:48;5.10;99.90
15003;DHT22;7597;53.590;10.020;2022-11-30T10:23:28;5.10;99.90
15003;DHT22;7597;53.590;10.020;2022-11-30T10:25:56;5.10;99.90
15003;DHT22;7597;53.590;10.020;2022-11-30T10:28:40;5.10;99.90
15003;DHT22;7597;53.590;10.020;2022-11-30T10:31:00;5.10;99.90
15003;DHT22;7597;53.590;10.020;2022-11-30T10:33:29;5.10;99.90
15003;DHT22;7597;53.590;10.020;2022-11-30T10:35:55;5.10;99.90
15003;DHT22;7597;53.590;10.020;2022-11-30T10:38:26;5.10;99.90
15003;DHT22;7597;53.590;10.020;2022-11-30T10:40:59;5.20;99.90
15003;DHT22;7597;53.590;10.020;2022-11-30T10:43:30;5.10;99.90
15003;DHT22;7597;53.590;10.020;2022-11-30T10:45:56;5.00;99.90
15003;DHT22;7597;53.590;10.020;2022-11-30T10:48:33;5.00;99.90
15003;DHT22;7597;53.590;10.020;2022-11-30T10:50:54;4.90;99.90
15003;DHT22;7597;53.590;10.020;2022-11-30T10:53:21;4.90;99.90
15003;DHT22;7597;53.590;10.020;2022-11-30T10:55:57;5.30;99.90
15003;DHT22;7597;53.590;10.020;2022-11-30T10:58:28;4.90;99.90
15003;DHT22;7597;53.590;10.020;2022-11-30T11:01:10;5.00;99.90
15003;DHT22;7597;53.590;10.020;2022-11-30T11:03:36;5.00;99.90
15003;DHT22;7597;53.590;10.020;2022-11-30T11:06:19;5.00;99.90
15003;DHT22;7597;53.590;10.020;2022-11-30T11:08:42;5.10;99.90
15003;DHT22;7597;53.590;10.020;2022-11-30T11:13:47;5.10;99.90
15003;DHT22;7597;53.590;10.020;2022-11-30T11:16:14;5.10;99.90
15003;DHT22;7597;53.590;10.020;2022-11-30T11:18:52;5.10;99.90
15003;DHT22;7597;53.590;10.020;2022-11-30T11:21:18;5.10;99.90
15003;DHT22;7597;53.590;10.020;2022-11-30T11:23:44;5.20;99.90
15003;DHT22;7597;53.590;10.020;2022-11-30T11:26:29;5.20;99.90
15003;DHT22;7597;53.590;10.020;2022-11-30T11:28:56;5.20;99.90
15003;DHT22;7597;53.590;10.020;2022-11-30T11:31:40;5.20;99.90
15003;DHT22;7597;53.590;10.020;2022-11-30T11:34:07;5.20;99.90
15003;DHT22;7597;53.590;10.020;2022-11-30T11:36:32;5.20;99.90
15003;DHT22;7597;53.590;10.020;2022-11-30T11:38:58;5.20;99.90
15003;DHT22;7597;53.590;10.020;2022-11-30T11:41:30;5.10;99.90
15003;DHT22;7597;53.590;10.020;2022-11-30T11:44:17;5.20;99.90
15003;DHT22;7597;53.590;10.020;2022-11-30T11:49:20;5.20;99.90
15003;DHT22;7597;53.590;10.020;2022-11-30T11:51:46;5.20;99.90
15003;DHT22;7597;53.590;10.020;2022-11-30T11:54:22;5.20;99.90
15003;DHT22;7597;53.590;10.020;2022-11-30T11:56:48;5.20;99.90
15003;DHT22;7597;53.590;10.020;2022-11-30T12:02:13;5.30;99.90
15003;DHT22;7597;53.590;10.020;2022-11-30T12:04:55;5.30;99.90
15003;DHT22;7597;53.590;10.020;2022-11-30T12:07:43;5.30;99.90
15003;DHT22;7597;53.590;10.020;2022-11-30T12:10:17;5.50;99.90
15003;DHT22;7597;53.590;10.020;2022-11-30T12:12:40;5.30;99.90
15003;DHT22;7597;53.590;10.020;2022-11-30T12:15:08;5.30;99.90
15003;DHT22;7597;53.590;10.020;2022-11-30T12:17:50;5.30;99.90
15003;DHT22;7597;53.590;10.020;2022-11-30T12:20:17;5.30;99.90
15003;DHT22;7597;53.590;10.020;2022-11-30T12:22:51;5.30;99.90
15003;DHT22;7597;53.590;10.020;2022-11-30T12:25:25;5.40;99.90
15003;DHT22;7597;53.590;10.020;2022-11-30T12:28:12;5.30;99.90
15003;DHT22;7597;53.590;10.020;2022-11-30T12:31:10;5.30;99.90
15003;DHT22;7597;53.590;10.020;2022-11-30T12:36:24;5.30;99.90
15003;DHT22;7597;53.590;10.020;2022-11-30T12:38:48;5.30;99.90
15003;DHT22;7597;53.590;10.020;2022-11-30T12:41:35;5.20;99.90
15003;DHT22;7597;53.590;10.020;2022-11-30T12:51:02;5.20;99.90
15003;DHT22;7597;53.590;10.020;2022-11-30T12:55:37;5.20;99.90
15003;DHT22;7597;53.590;10.020;2022-11-30T12:58:14;5.20;99.90
15003;DHT22;7597;53.590;10.020;2022-11-30T13:03:49;5.20;99.90
15003;DHT22;7597;53.590;10.020;2022-11-30T13:06:16;5.20;99.90
15003;DHT22;7597;53.590;10.020;2022-11-30T13:08:46;5.10;99.90
15003;DHT22;7597;53.590;10.020;2022-11-30T13:11:17;5.10;99.90
15003;DHT22;7597;53.590;10.020;2022-11-30T13:13:45;5.10;99.90
15003;DHT22;7597;53.590;10.020;2022-11-30T13:16:09;5.10;99.90
15003;DHT22;7597;53.590;10.020;2022-11-30T13:18:35;5.10;99.90
15003;DHT22;7597;53.590;10.020;2022-11-30T13:21:06;5.10;99.90
15003;DHT22;7597;53.590;10.020;2022-11-30T13:23:35;5.10;99.90
15003;DHT22;7597;53.590;10.020;2022-11-30T13:26:18;5.00;99.90
15003;DHT22;7597;53.590;10.020;2022-11-30T13:28:59;5.00;99.90
15003;DHT22;7597;53.590;10.020;2022-11-30T13:31:30;5.00;99.90
15003;DHT22;7597;53.590;10.020;2022-11-30T13:33:56;5.00;99.90
15003;DHT22;7597;53.590;10.020;2022-11-30T13:36:37;5.00;99.90
15003;DHT22;7597;53.590;10.020;2022-11-30T13:39:17;5.00;99.90
15003;DHT22;7597;53.590;10.020;2022-11-30T13:41:44;5.00;99.90
15003;DHT22;7597;53.590;10.020;2022-11-30T13:44:21;5.00;99.90
15003;DHT22;7597;53.590;10.020;2022-11-30T13:46:48;4.90;99.90
15003;DHT22;7597;53.590;10.020;2022-11-30T13:49:21;4.90;99.90
15003;DHT22;7597;53.590;10.020;2022-11-30T13:51:46;4.80;99.90
15003;DHT22;7597;53.590;10.020;2022-11-30T13:56:51;4.90;99.90
15003;DHT22;7597;53.590;10.020;2022-11-30T13:59:33;4.90;99.90
15003;DHT22;7597;53.590;10.020;2022-11-30T14:04:43;4.90;99.90
15003;DHT22;7597;53.590;10.020;2022-11-30T14:09:53;4.80;99.90
15003;DHT22;7597;53.590;10.020;2022-11-30T14:12:35;4.90;99.90
15003;DHT22;7597;53.590;10.020;2022-11-30T14:15:03;4.80;99.90
15003;DHT22;7597;53.590;10.020;2022-11-30T14:17:29;4.80;99.90
15003;DHT22;7597;53.590;10.020;2022-11-30T14:19:59;4.80;99.90
15003;DHT22;7597;53.590;10.020;2022-11-30T14:22:26;4.80;99.90
15003;DHT22;7597;53.590;10.020;2022-11-30T14:24:52;4.80;99.90
15003;DHT22;7597;53.590;10.020;2022-11-30T14:27:21;4.80;99.90
15003;DHT22;7597;53.590;10.020;2022-11-30T14:29:48;4.80;99.90
15003;DHT22;7597;53.590;10.020;2022-11-30T14:32:15;4.80;99.90
15003;DHT22;7597;53.590;10.020;2022-11-30T14:34:43;4.80;99.90
15003;DHT22;7597;53.590;10.020;2022-11-30T14:37:15;4.80;99.90
15003;DHT22;7597;53.590;10.020;2022-11-30T14:39:41;4.80;99.90
15003;DHT22;7597;53.590;10.020;2022-11-30T14:42:25;4.80;99.90
15003;DHT22;7597;53.590;10.020;2022-11-30T14:44:52;4.90;99.90
15003;DHT22;7597;53.590;10.020;2022-11-30T14:47:24;4.80;99.90
15003;DHT22;7597;53.590;10.020;2022-11-30T14:49:50;5.10;99.90
15003;DHT22;7597;53.590;10.020;2022-11-30T14:52:20;4.80;99.90
15003;DHT22;7597;53.590;10.020;2022-11-30T14:54:55;4.80;99.90
15003;DHT22;7597;53.590;10.020;2022-11-30T14:58:01;4.80;99.90
15003;DHT22;7597;53.590;10.020;2022-11-30T15:00:13;4.80;99.90
15003;DHT22;7597;53.590;10.020;2022-11-30T15:02:35;4.80;99.90
15003;DHT22;7597;53.590;10.020;2022-11-30T15:05:01;4.80;99.90
15003;DHT22;7597;53.590;10.020;2022-11-30T15:07:28;4.80;99.90
15003;DHT22;7597;53.590;10.020;2022-11-30T15:10:05;4.80;99.90
15003;DHT22;7597;53.590;10.020;2022-11-30T15:12:31;4.80;99.90
15003;DHT22;7597;53.590;10.020;2022-11-30T15:15:09;4.80;99.90
15003;DHT22;7597;53.590;10.020;2022-11-30T15:17:45;4.80;99.90
15003;DHT22;7597;53.590;10.020;2022-11-30T15:19:58;4.70;99.90
15003;DHT22;7597;53.590;10.020;2022-11-30T15:22:25;4.60;99.90
15003;DHT22;7597;53.590;10.020;2022-11-30T15:24:52;4.60;99.90
15003;DHT22;7597;53.590;10.020;2022-11-30T15:27:20;4.60;99.90
15003;DHT22;7597;53.590;10.020;2022-11-30T15:29:47;4.60;99.90
15003;DHT22;7597;53.590;10.020;2022-11-30T15:32:16;4.70;99.90
15003;DHT22;7597;53.590;10.020;2022-11-30T15:34:44;4.70;99.90
15003;DHT22;7597;53.590;10.020;2022-11-30T15:37:09;4.70;99.90
15003;DHT22;7597;53.590;10.020;2022-11-30T15:39:36;4.70;99.90
15003;DHT22;7597;53.590;10.020;2022-11-30T15:42:03;4.70;99.90
15003;DHT22;7597;53.590;10.020;2022-11-30T15:44:41;4.70;99.90
15003;DHT22;7597;53.590;10.020;2022-11-30T15:49:49;4.70;99.90
15003;DHT22;7597;53.590;10.020;2022-11-30T15:52:16;4.90;99.90
15003;DHT22;7597;53.590;10.020;2022-11-30T15:54:50;4.70;99.90
15003;DHT22;7597;53.590;10.020;2022-11-30T15:57:18;4.70;99.90
15003;DHT22;7597;53.590;10.020;2022-11-30T16:02:30;4.70;99.90
15003;DHT22;7597;53.590;10.020;2022-11-30T16:07:53;4.70;99.90
15003;DHT22;7597;53.590;10.020;2022-11-30T16:10:22;5.30;99.90
15003;DHT22;7597;53.590;10.020;2022-11-30T16:12:47;4.60;99.90
15003;DHT22;7597;53.590;10.020;2022-11-30T16:15:20;4.70;99.90
15003;DHT22;7597;53.590;10.020;2022-11-30T16:17:45;4.70;99.90
15003;DHT22;7597;53.590;10.020;2022-11-30T16:20:12;4.70;99.90
15003;DHT22;7597;53.590;10.020;2022-11-30T16:22:43;4.70;99.90
15003;DHT22;7597;53.590;10.020;2022-11-30T16:25:12;4.70;99.90
15003;DHT22;7597;53.590;10.020;2022-11-30T16:27:38;4.50;99.90
15003;DHT22;7597;53.590;10.020;2022-11-30T16:30:05;4.70;99.90
15003;DHT22;7597;53.590;10.020;2022-11-30T16:32:32;4.60;99.90
15003;DHT22;7597;53.590;10.020;2022-11-30T16:34:59;4.60;99.90
15003;DHT22;7597;53.590;10.020;2022-11-30T16:37:25;4.70;99.90
15003;DHT22;7597;53.590;10.020;2022-11-30T16:39:52;4.60;99.90